Hartford, Connecticut
Current Conditions -  °F | °C
As of 2:53 AM on Saturday 25 Oct 2014 (Local Time) from KHFD Reporting Station
Clear Clear  
Wind Chill: 50°   Ceiling: Unl
Heat Index: 50°   Visibility: 10mi
Dew Point: 39°   Wind: 5mph
Humidity: 66%   Direction: NA
Pressure: 29.81"   Gusts: NA
Location:  41.76°N, 72.67°W
Report Text: KHFD 250653Z AUTO VRB04KT 10SM CLR 10/04 A2981 RMK AO2 SLP093 T01000039
Loading
Personal Weather Stations






























Interactive Weather Map New forecast layout! Learn more

10-Day Weather Forecast

Advertisements
Track Severe Weather on mobile